createdAt,value
2019-03-24T00:01:15.239Z,99.90
2019-03-24T00:03:47.088Z,99.90
2019-03-24T00:06:18.229Z,99.90
2019-03-24T00:08:50.018Z,99.90
2019-03-24T00:11:21.536Z,99.90
2019-03-24T00:13:52.832Z,99.90
2019-03-24T00:16:23.527Z,99.90
2019-03-24T00:18:55.396Z,99.90
2019-03-24T00:21:26.940Z,99.90
2019-03-24T00:23:58.183Z,99.90
2019-03-24T00:26:29.040Z,99.90
2019-03-24T00:29:00.547Z,99.90
2019-03-24T00:31:32.159Z,99.90
2019-03-24T00:34:02.881Z,99.90
2019-03-24T00:36:34.225Z,99.90
2019-03-24T00:39:07.657Z,99.90
2019-03-24T00:41:39.217Z,99.90
2019-03-24T00:44:10.965Z,99.90
2019-03-24T00:46:42.326Z,99.90
2019-03-24T00:49:13.271Z,99.90
2019-03-24T00:51:44.830Z,99.90
2019-03-24T00:54:15.193Z,99.90
2019-03-24T00:56:47.107Z,99.90
2019-03-24T00:59:18.181Z,99.90
2019-03-24T01:01:49.834Z,99.90
2019-03-24T01:04:21.387Z,99.90
2019-03-24T01:06:54.721Z,99.90
2019-03-24T01:09:25.903Z,99.90
2019-03-24T01:11:56.873Z,99.90
2019-03-24T01:14:28.435Z,99.90
2019-03-24T01:16:59.523Z,99.90
2019-03-24T01:19:31.401Z,99.90
2019-03-24T01:22:02.839Z,99.90
2019-03-24T01:24:34.250Z,99.90
2019-03-24T01:27:07.011Z,99.90
2019-03-24T01:29:39.027Z,99.90
2019-03-24T01:32:09.684Z,99.90
2019-03-24T01:34:40.683Z,99.90
2019-03-24T01:37:11.843Z,99.90
2019-03-24T01:39:43.097Z,99.90
2019-03-24T01:42:14.407Z,99.90
2019-03-24T01:44:46.098Z,99.90
2019-03-24T01:47:17.377Z,99.90
2019-03-24T01:49:49.156Z,99.90
2019-03-24T01:52:20.569Z,99.90
2019-03-24T01:54:51.721Z,99.90
2019-03-24T01:57:23.678Z,99.90
2019-03-24T01:59:55.440Z,99.90
2019-03-24T02:02:26.327Z,99.90
2019-03-24T02:04:58.151Z,99.90
2019-03-24T02:07:29.706Z,99.90
2019-03-24T02:10:00.842Z,99.90
2019-03-24T02:12:33.025Z,99.90
2019-03-24T02:15:04.594Z,99.90
2019-03-24T02:17:34.924Z,99.90
2019-03-24T02:20:07.435Z,99.90
2019-03-24T02:22:38.433Z,99.90
2019-03-24T02:25:11.019Z,99.90
2019-03-24T02:27:42.163Z,99.90
2019-03-24T02:30:14.569Z,99.90
2019-03-24T02:32:46.102Z,99.90
2019-03-24T02:35:17.394Z,99.90
2019-03-24T02:37:49.223Z,99.90
2019-03-24T02:40:20.297Z,99.90
2019-03-24T02:42:51.849Z,99.90
2019-03-24T02:45:23.484Z,99.90
2019-03-24T02:47:54.097Z,99.90
2019-03-24T02:50:25.303Z,99.90
2019-03-24T02:52:55.889Z,99.90
2019-03-24T02:55:27.657Z,99.90
2019-03-24T02:57:59.567Z,99.90
2019-03-24T03:00:30.682Z,99.90
2019-03-24T03:03:02.232Z,99.90
2019-03-24T03:05:33.883Z,99.90
2019-03-24T03:08:05.137Z,99.90
2019-03-24T03:10:36.828Z,99.90
2019-03-24T03:13:07.792Z,99.90
2019-03-24T03:15:39.253Z,99.90
2019-03-24T03:18:10.707Z,99.90
2019-03-24T03:20:42.216Z,99.90
2019-03-24T03:23:13.799Z,99.90
2019-03-24T03:25:44.923Z,99.90
2019-03-24T03:28:15.876Z,99.90
2019-03-24T03:30:46.733Z,99.90
2019-03-24T03:33:18.162Z,99.90
2019-03-24T03:35:49.100Z,99.90
2019-03-24T03:38:20.897Z,99.90
2019-03-24T03:40:52.673Z,99.90
2019-03-24T03:43:23.979Z,99.90
2019-03-24T03:45:55.335Z,99.90
2019-03-24T03:48:26.473Z,99.90
2019-03-24T03:50:57.745Z,99.90
2019-03-24T03:53:28.776Z,99.90
2019-03-24T03:56:00.120Z,99.90
2019-03-24T03:58:31.611Z,99.90
2019-03-24T04:01:03.117Z,99.90
2019-03-24T04:03:34.464Z,99.90
2019-03-24T04:06:05.291Z,99.90
2019-03-24T04:08:35.855Z,99.90
2019-03-24T04:11:07.633Z,99.90
2019-03-24T04:13:39.194Z,99.90
2019-03-24T04:16:10.342Z,99.90
2019-03-24T04:18:41.299Z,99.90
2019-03-24T04:21:13.031Z,99.90
2019-03-24T04:23:44.565Z,99.90
2019-03-24T04:26:15.958Z,99.90
2019-03-24T04:28:47.374Z,99.90
2019-03-24T04:31:19.268Z,99.90
2019-03-24T04:33:50.609Z,99.90
2019-03-24T04:36:22.385Z,99.90
2019-03-24T04:38:53.746Z,99.90
2019-03-24T04:41:25.094Z,99.90
2019-03-24T04:43:56.034Z,99.90
2019-03-24T04:46:27.078Z,99.90
2019-03-24T04:48:58.333Z,99.90
2019-03-24T04:51:30.093Z,99.90
2019-03-24T04:54:01.647Z,99.90
2019-03-24T04:56:32.817Z,99.90
2019-03-24T04:59:03.637Z,99.90
2019-03-24T05:01:34.900Z,99.90
2019-03-24T05:04:06.825Z,99.90
2019-03-24T05:06:38.819Z,99.90
2019-03-24T05:09:10.075Z,99.90
2019-03-24T05:11:41.491Z,99.90
2019-03-24T05:14:12.933Z,99.90
2019-03-24T05:16:44.431Z,99.90
2019-03-24T05:19:15.809Z,99.90
2019-03-24T05:21:47.353Z,99.90
2019-03-24T05:24:18.905Z,99.90
2019-03-24T05:26:50.265Z,99.90
2019-03-24T05:29:21.360Z,99.90
2019-03-24T05:31:52.753Z,99.90
2019-03-24T05:34:24.311Z,99.90
2019-03-24T05:36:56.282Z,99.90
2019-03-24T05:39:27.252Z,99.90
2019-03-24T05:41:58.341Z,99.90
2019-03-24T05:44:29.934Z,99.90
2019-03-24T05:47:01.689Z,99.90
2019-03-24T05:49:33.596Z,99.90
2019-03-24T05:52:05.410Z,99.90
2019-03-24T05:54:36.778Z,99.90
2019-03-24T05:57:08.045Z,99.90
2019-03-24T05:59:39.634Z,99.90
2019-03-24T06:02:10.627Z,99.90
2019-03-24T06:04:42.156Z,99.90
2019-03-24T06:07:13.318Z,99.90
2019-03-24T06:09:44.860Z,99.90
2019-03-24T06:12:16.390Z,99.90
2019-03-24T06:14:48.422Z,99.90
2019-03-24T06:17:19.354Z,99.90
2019-03-24T06:19:52.282Z,99.90
2019-03-24T06:22:24.111Z,99.90
2019-03-24T06:24:55.466Z,99.90
2019-03-24T06:27:26.806Z,99.90
2019-03-24T06:29:57.756Z,99.90
2019-03-24T06:32:28.980Z,99.90
2019-03-24T06:35:00.674Z,99.90
2019-03-24T06:37:32.100Z,99.90
2019-03-24T06:40:03.370Z,99.90
2019-03-24T06:42:35.344Z,99.90
2019-03-24T06:45:08.312Z,99.90
2019-03-24T06:47:39.684Z,99.90
2019-03-24T06:50:12.266Z,99.90
2019-03-24T06:52:43.416Z,99.90
2019-03-24T06:55:14.774Z,99.90
2019-03-24T06:57:45.720Z,99.90
2019-03-24T07:00:18.478Z,99.90
2019-03-24T07:02:49.275Z,99.90
2019-03-24T07:05:21.199Z,99.90
2019-03-24T07:07:52.562Z,99.90
2019-03-24T07:10:24.110Z,99.90
2019-03-24T07:12:55.260Z,99.90
2019-03-24T07:15:26.812Z,99.90
2019-03-24T07:18:07.942Z,99.90
2019-03-24T07:20:31.364Z,99.90
2019-03-24T07:23:03.349Z,99.90
2019-03-24T07:25:35.303Z,99.90
2019-03-24T07:28:07.049Z,99.90
2019-03-24T07:30:38.148Z,99.90
2019-03-24T07:33:09.981Z,99.90
2019-03-24T07:35:40.965Z,99.90
2019-03-24T07:38:12.879Z,99.90
2019-03-24T07:40:44.642Z,99.90
2019-03-24T07:43:16.416Z,99.90
2019-03-24T07:45:47.563Z,99.90
2019-03-24T07:48:19.275Z,99.90
2019-03-24T07:50:50.667Z,99.90
2019-03-24T07:53:22.248Z,99.90
2019-03-24T07:55:54.625Z,99.90
2019-03-24T07:58:25.355Z,99.90
2019-03-24T08:00:56.899Z,99.90
2019-03-24T08:03:28.663Z,99.90
2019-03-24T08:05:59.511Z,99.90
2019-03-24T08:08:30.898Z,99.90
2019-03-24T08:11:02.109Z,99.90
2019-03-24T08:13:33.471Z,99.90
2019-03-24T08:16:04.912Z,99.90
2019-03-24T08:18:36.169Z,99.90
2019-03-24T08:21:07.517Z,99.90
2019-03-24T08:23:38.559Z,99.90
2019-03-24T08:26:09.669Z,99.90
2019-03-24T08:28:42.393Z,99.90
2019-03-24T08:31:14.167Z,99.90
2019-03-24T08:33:45.467Z,99.90
2019-03-24T08:36:16.527Z,99.90
2019-03-24T08:38:47.746Z,99.90
2019-03-24T08:41:19.573Z,99.90
2019-03-24T08:43:51.134Z,99.90
2019-03-24T08:46:22.894Z,99.90
2019-03-24T08:48:54.460Z,99.90
2019-03-24T08:51:26.208Z,99.90
2019-03-24T08:53:58.173Z,99.90
2019-03-24T08:56:29.529Z,99.90
2019-03-24T08:59:00.685Z,99.90
2019-03-24T09:01:32.039Z,99.90
2019-03-24T09:04:03.025Z,99.90
2019-03-24T09:06:34.745Z,99.90
2019-03-24T09:09:08.552Z,99.90
2019-03-24T09:11:39.922Z,99.90
2019-03-24T09:14:10.758Z,99.90
2019-03-24T09:16:42.602Z,99.90
2019-03-24T09:19:13.700Z,99.90
2019-03-24T09:21:44.898Z,99.10
2019-03-24T09:24:16.662Z,98.40
2019-03-24T09:26:48.044Z,98.10
2019-03-24T09:29:19.762Z,96.30
2019-03-24T09:31:51.137Z,94.00
2019-03-24T09:34:22.481Z,92.30
2019-03-24T09:36:54.042Z,92.20
2019-03-24T09:39:25.281Z,91.90
2019-03-24T09:41:56.754Z,92.10
2019-03-24T09:44:28.306Z,92.40
2019-03-24T09:47:17.002Z,92.70
2019-03-24T09:49:51.099Z,92.40
2019-03-24T09:52:22.788Z,92.10
2019-03-24T09:54:54.405Z,91.50
2019-03-24T09:57:26.504Z,91.20
2019-03-24T09:59:58.142Z,91.00
2019-03-24T10:02:29.467Z,91.10
2019-03-24T10:05:00.486Z,91.30
2019-03-24T10:07:31.774Z,91.50
2019-03-24T10:10:03.139Z,91.40
2019-03-24T10:12:34.524Z,91.10
2019-03-24T10:15:06.248Z,91.20
2019-03-24T10:17:37.806Z,90.80
2019-03-24T10:20:10.594Z,90.30
2019-03-24T10:22:41.770Z,87.40
2019-03-24T10:25:13.095Z,85.20
2019-03-24T10:27:44.629Z,84.10
2019-03-24T10:30:15.795Z,82.10
2019-03-24T10:32:47.010Z,80.40
2019-03-24T10:35:19.117Z,78.20
2019-03-24T10:37:50.810Z,76.40
2019-03-24T10:40:28.692Z,74.30
2019-03-24T10:42:55.222Z,71.80
2019-03-24T10:45:26.326Z,69.70
2019-03-24T10:47:57.110Z,67.50
2019-03-24T10:50:27.977Z,64.00
2019-03-24T10:52:59.402Z,62.90
2019-03-24T10:55:30.712Z,61.80
2019-03-24T10:58:02.509Z,60.60
2019-03-24T11:00:42.035Z,59.60
2019-03-24T11:03:12.941Z,57.70
2019-03-24T11:05:44.724Z,57.20
2019-03-24T11:08:15.328Z,57.70
2019-03-24T11:10:46.337Z,58.60
2019-03-24T11:13:18.471Z,60.00
2019-03-24T11:15:49.975Z,62.00
2019-03-24T11:18:20.495Z,62.40
2019-03-24T11:20:52.283Z,62.60
2019-03-24T11:23:23.555Z,62.60
2019-03-24T11:25:54.576Z,62.10
2019-03-24T11:28:26.112Z,61.80
2019-03-24T11:30:57.892Z,62.20
2019-03-24T11:33:29.677Z,62.90
2019-03-24T11:36:01.253Z,62.80
2019-03-24T11:38:32.039Z,61.80
2019-03-24T11:41:02.891Z,61.40
2019-03-24T11:43:34.060Z,60.10
2019-03-24T11:46:05.606Z,58.90
2019-03-24T11:48:36.955Z,58.90
2019-03-24T11:51:09.069Z,58.10
2019-03-24T11:53:39.883Z,57.40
2019-03-24T11:56:11.207Z,56.70
2019-03-24T11:58:41.912Z,56.50
2019-03-24T12:01:13.920Z,56.50
2019-03-24T12:03:45.185Z,56.60
2019-03-24T12:06:16.181Z,57.20
2019-03-24T12:08:48.699Z,57.50
2019-03-24T12:11:20.557Z,58.30
2019-03-24T12:13:52.114Z,58.30
2019-03-24T12:16:24.706Z,58.20
2019-03-24T12:18:56.053Z,58.20
2019-03-24T12:21:26.993Z,58.60
2019-03-24T12:23:58.145Z,58.70
2019-03-24T12:26:28.998Z,58.80
2019-03-24T12:29:00.026Z,59.20
2019-03-24T12:31:31.381Z,60.00
2019-03-24T12:34:02.251Z,61.80
2019-03-24T12:36:33.669Z,63.80
2019-03-24T12:39:05.550Z,65.10
2019-03-24T12:41:36.789Z,65.80
2019-03-24T12:44:08.042Z,66.70
2019-03-24T12:46:39.924Z,67.00
2019-03-24T12:49:10.850Z,67.10
2019-03-24T12:51:42.413Z,67.20
2019-03-24T12:54:13.740Z,67.50
2019-03-24T12:56:44.616Z,68.10
2019-03-24T12:59:15.406Z,68.50
2019-03-24T13:01:46.431Z,66.90
2019-03-24T13:04:17.640Z,67.00
2019-03-24T13:06:48.307Z,67.60
2019-03-24T13:09:20.495Z,67.90
2019-03-24T13:11:51.802Z,68.60
2019-03-24T13:14:23.159Z,69.40
2019-03-24T13:16:54.305Z,69.80
2019-03-24T13:19:26.258Z,69.70
2019-03-24T13:21:58.038Z,69.70
2019-03-24T13:24:29.256Z,69.80
2019-03-24T13:27:00.473Z,70.20
2019-03-24T13:29:31.177Z,69.80
2019-03-24T13:32:03.245Z,69.00
2019-03-24T13:34:34.734Z,68.90
2019-03-24T13:37:06.098Z,69.20
2019-03-24T13:39:38.328Z,68.90
2019-03-24T13:42:10.161Z,69.10
2019-03-24T13:44:41.032Z,67.90
2019-03-24T13:47:12.790Z,66.20
2019-03-24T13:49:44.482Z,62.90
2019-03-24T13:52:15.860Z,60.00
2019-03-24T13:54:47.254Z,58.60
2019-03-24T13:57:18.196Z,57.20
2019-03-24T13:59:49.840Z,57.10
2019-03-24T14:02:21.696Z,55.30
2019-03-24T14:04:53.284Z,55.20
2019-03-24T14:07:24.518Z,56.60
2019-03-24T14:09:57.002Z,57.30
2019-03-24T14:12:27.824Z,57.80
2019-03-24T14:14:59.518Z,59.30
2019-03-24T14:17:32.212Z,60.30
2019-03-24T14:20:06.488Z,61.50
2019-03-24T14:22:37.438Z,62.30
2019-03-24T14:25:10.466Z,62.90
2019-03-24T14:27:42.225Z,63.20
2019-03-24T14:30:16.438Z,63.10
2019-03-24T14:32:48.194Z,63.90
2019-03-24T14:35:19.970Z,64.80
2019-03-24T14:37:52.328Z,65.80
2019-03-24T14:40:24.038Z,66.80
2019-03-24T14:42:55.226Z,67.70
2019-03-24T14:45:26.322Z,68.20
2019-03-24T14:47:58.600Z,67.70
2019-03-24T14:50:29.512Z,65.40
2019-03-24T14:53:00.382Z,63.90
2019-03-24T14:55:31.340Z,60.80
2019-03-24T14:58:03.170Z,59.80
2019-03-24T15:00:39.129Z,60.10
2019-03-24T15:03:10.337Z,60.90
2019-03-24T15:05:43.962Z,62.60
2019-03-24T15:08:16.559Z,64.10
2019-03-24T15:10:47.908Z,65.00
2019-03-24T15:13:20.053Z,65.50
2019-03-24T15:15:51.639Z,67.00
2019-03-24T15:18:22.977Z,68.60
2019-03-24T15:21:04.955Z,69.90
2019-03-24T15:23:27.282Z,70.70
2019-03-24T15:25:59.918Z,71.90
2019-03-24T15:28:31.135Z,73.10
2019-03-24T15:31:02.832Z,74.10
2019-03-24T15:33:35.016Z,75.00
2019-03-24T15:36:06.735Z,75.20
2019-03-24T15:38:38.519Z,75.30
2019-03-24T15:41:09.871Z,76.30
2019-03-24T15:43:41.341Z,77.10
2019-03-24T15:46:12.520Z,77.20
2019-03-24T15:48:43.941Z,77.60
2019-03-24T15:51:18.104Z,78.10
2019-03-24T15:53:49.642Z,78.30
2019-03-24T15:56:21.282Z,78.80
2019-03-24T15:58:53.042Z,78.90
2019-03-24T16:01:24.181Z,79.80
2019-03-24T16:03:55.344Z,80.80
2019-03-24T16:06:26.500Z,81.50
2019-03-24T16:08:58.247Z,81.90
2019-03-24T16:11:29.409Z,81.80
2019-03-24T16:14:01.158Z,82.40
2019-03-24T16:16:32.315Z,82.90
2019-03-24T16:19:03.863Z,83.10
2019-03-24T16:21:35.391Z,83.80
2019-03-24T16:24:06.691Z,84.20
2019-03-24T16:26:37.541Z,84.20
2019-03-24T16:29:09.063Z,84.60
2019-03-24T16:31:40.417Z,85.10
2019-03-24T16:34:12.185Z,85.60
2019-03-24T16:36:43.715Z,86.30
2019-03-24T16:39:15.459Z,86.80
2019-03-24T16:41:46.645Z,87.40
2019-03-24T16:44:17.464Z,87.80
2019-03-24T16:46:48.539Z,88.00
2019-03-24T16:49:19.629Z,87.90
2019-03-24T16:51:51.033Z,87.40
2019-03-24T16:54:22.480Z,87.50
2019-03-24T16:56:54.155Z,87.10
2019-03-24T16:59:25.532Z,86.70
2019-03-24T17:01:56.866Z,87.00
2019-03-24T17:04:28.369Z,87.50
2019-03-24T17:06:59.977Z,88.10
2019-03-24T17:09:33.259Z,88.50
2019-03-24T17:12:13.417Z,89.80
2019-03-24T17:14:44.931Z,89.20
2019-03-24T17:17:17.054Z,89.10
2019-03-24T17:19:48.679Z,89.40
2019-03-24T17:22:19.560Z,89.30
2019-03-24T17:24:51.550Z,89.60
2019-03-24T17:27:22.681Z,90.00
2019-03-24T17:29:54.462Z,90.30
2019-03-24T17:32:25.724Z,90.80
2019-03-24T17:34:57.506Z,91.10
2019-03-24T17:37:30.026Z,91.30
2019-03-24T17:40:01.922Z,91.60
2019-03-24T17:42:33.642Z,92.10
2019-03-24T17:45:07.062Z,92.70
2019-03-24T17:47:38.213Z,92.80
2019-03-24T17:50:12.088Z,93.10
2019-03-24T17:52:45.722Z,93.20
2019-03-24T17:55:27.214Z,93.30
2019-03-24T17:57:51.204Z,93.60
2019-03-24T18:00:38.924Z,93.70
2019-03-24T18:03:10.422Z,94.10
2019-03-24T18:05:42.054Z,94.50
2019-03-24T18:08:13.614Z,95.00
2019-03-24T18:10:45.174Z,95.30
2019-03-24T18:13:16.744Z,95.70
2019-03-24T18:15:48.072Z,96.10
2019-03-24T18:18:19.292Z,96.30
2019-03-24T18:20:50.785Z,96.60
2019-03-24T18:23:21.925Z,96.90
2019-03-24T18:25:53.906Z,97.30
2019-03-24T18:28:24.774Z,97.50
2019-03-24T18:30:56.410Z,97.80
2019-03-24T18:33:27.342Z,98.00
2019-03-24T18:35:58.895Z,98.30
2019-03-24T18:38:29.751Z,98.70
2019-03-24T18:41:00.990Z,99.00
2019-03-24T18:43:32.551Z,99.40
2019-03-24T18:46:04.954Z,99.90
2019-03-24T18:48:36.632Z,99.90
2019-03-24T18:51:08.238Z,99.90
2019-03-24T18:53:40.007Z,99.90
2019-03-24T18:56:11.155Z,99.90
2019-03-24T18:58:42.110Z,99.90
2019-03-24T19:01:13.071Z,99.90
2019-03-24T19:03:43.738Z,99.90
2019-03-24T19:06:16.774Z,99.90
2019-03-24T19:08:47.591Z,99.90
2019-03-24T19:11:17.948Z,99.90
2019-03-24T19:13:49.395Z,99.90
2019-03-24T19:16:20.745Z,99.90
2019-03-24T19:18:51.421Z,99.90
2019-03-24T19:21:22.124Z,99.90
2019-03-24T19:23:53.171Z,99.90
2019-03-24T19:26:24.531Z,99.90
2019-03-24T19:28:54.797Z,99.90
2019-03-24T19:31:26.806Z,99.90
2019-03-24T19:33:58.249Z,99.90
2019-03-24T19:36:29.680Z,99.90
2019-03-24T19:39:01.494Z,99.90
2019-03-24T19:41:33.669Z,99.90
2019-03-24T19:44:04.436Z,99.90
2019-03-24T19:46:35.368Z,99.90
2019-03-24T19:49:08.589Z,99.90
2019-03-24T19:51:40.710Z,99.90
2019-03-24T19:54:12.085Z,99.90
2019-03-24T19:56:43.623Z,99.90
2019-03-24T19:59:15.387Z,99.90
2019-03-24T20:01:46.744Z,99.90
2019-03-24T20:04:18.510Z,99.90
2019-03-24T20:06:49.415Z,99.90
2019-03-24T20:09:21.230Z,99.90
2019-03-24T20:11:52.952Z,99.90
2019-03-24T20:14:25.566Z,99.90
2019-03-24T20:16:57.107Z,99.90
2019-03-24T20:19:28.670Z,99.90
2019-03-24T20:22:00.171Z,99.90
2019-03-24T20:24:31.799Z,99.90
2019-03-24T20:27:02.927Z,99.90
2019-03-24T20:29:34.296Z,99.90
2019-03-24T20:32:05.839Z,99.90
2019-03-24T20:34:37.190Z,99.90
2019-03-24T20:37:08.295Z,99.90
2019-03-24T20:39:39.563Z,99.90
2019-03-24T20:42:10.594Z,99.90
2019-03-24T20:44:42.377Z,99.90
2019-03-24T20:47:13.757Z,99.90
2019-03-24T20:49:45.005Z,99.90
2019-03-24T20:52:16.453Z,99.90
2019-03-24T20:54:47.547Z,99.90
2019-03-24T20:57:18.583Z,99.90
2019-03-24T20:59:52.064Z,99.90
2019-03-24T21:02:23.171Z,99.90
2019-03-24T21:04:54.863Z,99.90
2019-03-24T21:07:26.825Z,99.90
2019-03-24T21:09:58.175Z,99.90
2019-03-24T21:12:29.531Z,99.90
2019-03-24T21:15:01.293Z,99.90
2019-03-24T21:17:32.723Z,99.90
2019-03-24T21:20:04.209Z,99.90
2019-03-24T21:22:35.766Z,99.90
2019-03-24T21:25:07.927Z,99.90
2019-03-24T21:27:40.144Z,99.90
2019-03-24T21:30:13.511Z,99.90
2019-03-24T21:32:45.067Z,99.90
2019-03-24T21:35:16.015Z,99.90
2019-03-24T21:37:47.194Z,99.90
2019-03-24T21:40:18.235Z,99.90
2019-03-24T21:42:49.874Z,99.90
2019-03-24T21:45:21.398Z,99.90
2019-03-24T21:47:51.748Z,99.90
2019-03-24T21:50:23.509Z,99.90
2019-03-24T21:52:55.071Z,99.90
2019-03-24T21:55:25.913Z,99.90
2019-03-24T21:57:58.062Z,99.90
2019-03-24T22:00:37.932Z,99.90
2019-03-24T22:03:09.542Z,99.90
2019-03-24T22:05:40.380Z,99.80
2019-03-24T22:08:13.834Z,99.30
2019-03-24T22:10:44.987Z,99.20
2019-03-24T22:13:15.703Z,99.10
2019-03-24T22:15:47.072Z,98.90
2019-03-24T22:18:18.368Z,98.70
2019-03-24T22:20:50.199Z,98.50
2019-03-24T22:23:21.147Z,98.40
2019-03-24T22:25:52.696Z,98.30
2019-03-24T22:28:24.252Z,98.10
2019-03-24T22:30:56.051Z,98.10
2019-03-24T22:33:27.774Z,98.00
2019-03-24T22:35:59.544Z,97.90
2019-03-24T22:38:31.868Z,97.80
2019-03-24T22:41:03.473Z,97.70
2019-03-24T22:43:34.220Z,97.60
2019-03-24T22:46:05.762Z,97.70
2019-03-24T22:48:36.910Z,97.70
2019-03-24T22:51:08.261Z,97.80
2019-03-24T22:53:39.838Z,97.90
2019-03-24T22:56:10.972Z,98.00
2019-03-24T22:58:42.484Z,98.00
2019-03-24T23:01:14.988Z,98.00
2019-03-24T23:03:45.740Z,97.90
2019-03-24T23:06:17.380Z,98.10
2019-03-24T23:08:48.971Z,98.10
2019-03-24T23:11:20.250Z,98.00
2019-03-24T23:13:51.012Z,98.00
2019-03-24T23:16:22.610Z,98.10
2019-03-24T23:18:53.916Z,98.10
2019-03-24T23:21:25.525Z,98.20
2019-03-24T23:23:56.459Z,98.40
2019-03-24T23:26:27.942Z,98.30
2019-03-24T23:28:59.391Z,98.40
2019-03-24T23:31:30.617Z,98.50
2019-03-24T23:34:01.710Z,98.50
2019-03-24T23:36:33.226Z,98.50
2019-03-24T23:39:06.239Z,98.50
2019-03-24T23:41:37.426Z,98.40
2019-03-24T23:44:08.591Z,98.40
2019-03-24T23:46:39.865Z,98.40
2019-03-24T23:49:12.802Z,98.50
2019-03-24T23:51:44.134Z,98.30
2019-03-24T23:54:26.519Z,98.10
2019-03-24T23:56:49.719Z,98.10
2019-03-24T23:59:21.349Z,98.10
